Time;durP1;ratioP1;P1;durP2;ratioP2;P2;SDS_P1;SDS_P2;PMS_P1;PMS_P2;Temp;Humidity;BMP_temperature;BMP_pressure;BME280_temperature;BME280_humidity;BME280_pressure;Samples;Min_cycle;Max_cycle;Signal;HPM_P1;HPM_P2
2023/05/27 00:00:03;;;;;;;;;;;;;;;17.96;89.06;99465.31;345647;28;1530;-75
2023/05/27 00:00:13;;;;;;;;;;;;;;;17.97;89.13;99464.38;347777;28;840;-75
2023/05/27 00:00:23;;;;;;;;;;;;;;;17.97;89.05;99467.03;349030;28;1310;-75
2023/05/27 00:00:33;;;;;;;;;;;;;;;17.97;89.04;99467.03;346911;28;1325;-75
2023/05/27 00:00:44;;;;;;;;;;;;;;;17.96;88.91;99460.03;346306;28;879;-75
2023/05/27 00:00:55;;;;;;;;;;;;;;;17.97;89.04;99467.03;349165;28;816;-75
2023/05/27 00:01:05;;;;;;;;;;;;;;;17.97;89.10;99461.72;346839;28;1394;-75
2023/05/27 00:01:16;;;;;;;;;;;;;;;17.97;88.91;99455.59;345159;28;1492;-75
2023/05/27 00:01:27;;;;;;;;;;;;;;;17.96;89.20;99454.75;345038;28;860;-75
2023/05/27 00:01:37;;;;;;;;;;;;;;;17.97;89.16;99464.38;346060;28;1352;-75
2023/05/27 00:01:47;;;;;;;;;;;;;;;17.96;89.14;99457.38;344388;28;3349;-75
2023/05/27 00:01:57;;;;;;;;;;;;;;;17.97;89.15;99461.72;339432;28;4767;-75
2023/05/27 00:02:07;;;;;;;;;;;;;;;17.95;89.15;99458.34;341180;28;5047;-76
2023/05/27 00:02:18;;;;;;;;;;;;;;;17.96;89.22;99465.31;342967;28;1358;-76
2023/05/27 00:02:28;;;;;;;;;;;;;;;17.95;89.31;99461.00;343715;28;1191;-76
2023/05/27 00:02:39;;;;;;;;;;;;;;;17.92;89.38;99466.50;345747;28;859;-76
2023/05/27 00:02:49;;;;;;;;;;;;;;;17.89;89.43;99458.78;346967;28;1292;-76
2023/05/27 00:03:02;;;;;;;;;;;;;;;17.87;89.59;99461.56;347657;28;1462;-75
2023/05/27 00:03:13;;;;;;;;;;;;;;;17.85;89.77;99452.88;347764;28;758;-75
2023/05/27 00:03:23;;;;;;;;;;;;;;;17.86;89.65;99453.72;341568;28;1692;-75
2023/05/27 00:03:34;;;;;;;;;;;;;;;17.87;89.55;99452.75;343802;28;1836;-75
2023/05/27 00:03:45;;;;;;;;;;;;;;;17.88;89.66;99457.09;342434;28;1744;-76
2023/05/27 00:03:55;;;;;;;;;;;;;;;17.88;89.53;99457.09;339097;29;1284;-76
2023/05/27 00:04:06;;;;;;;;;;;;;;;17.89;89.56;99450.84;331150;29;1914;-76
2023/05/27 00:04:16;;;;;;;;;;;;;;;17.90;89.54;99455.19;330426;29;1401;-76
2023/05/27 00:04:26;;;;;;;;;;;;;;;17.92;89.45;99458.56;330666;29;811;-76
2023/05/27 00:04:36;;;;;;;;;;;;;;;17.89;89.51;99453.50;331408;29;1321;-76
2023/05/27 00:04:48;;;;;;;;;;;;;;;17.92;89.34;99454.13;331144;29;991;-76
2023/05/27 00:04:58;;;;;;;;;;;;;;;17.92;89.35;99453.28;330770;29;894;-75
2023/05/27 00:05:08;;;;;;;;;;;;;;;17.92;89.33;99456.75;324618;30;2318;-75
2023/05/27 00:05:18;;;;;;;;;;;;;;;17.92;89.45;99451.47;323645;29;2509;-75
2023/05/27 00:05:29;;;;;;;;;;;;;;;17.94;89.34;99456.66;325264;29;2286;-75
2023/05/27 00:05:39;;;;;;;;;;;;;;;17.93;89.36;99455.81;328203;30;1297;-75
2023/05/27 00:05:49;;;;;;;;;;;;;;;17.94;89.25;99454.00;326442;30;2376;-75
2023/05/27 00:06:00;;;;;;;;;;;;;;;17.95;89.36;99453.03;325494;30;2446;-75
2023/05/27 00:06:10;;;;;;;;;;;;;;;17.94;89.29;99451.34;328353;30;812;-76
2023/05/27 00:06:20;;;;;;;;;;;;;;;17.94;89.25;99456.66;324665;30;2527;-75
2023/05/27 00:06:31;;;;;;;;;;;;;;;17.95;89.21;99455.69;323646;30;1871;-75
2023/05/27 00:06:41;;;;;;;;;;;;;;;17.95;89.46;99461.84;324673;30;793;-76
2023/05/27 00:06:52;;;;;;;;;;;;;;;17.95;89.21;99453.88;327461;30;1424;-76
2023/05/27 00:07:03;;;;;;;;;;;;;;;17.95;89.32;99458.34;327264;30;1798;-76
2023/05/27 00:07:13;;;;;;;;;;;;;;;17.95;89.22;99447.75;327064;30;733;-76
2023/05/27 00:07:23;;;;;;;;;;;;;;;17.95;89.14;99450.41;329346;30;2466;-76
2023/05/27 00:07:33;;;;;;;;;;;;;;;17.95;89.00;99458.34;328875;29;2965;-76
2023/05/27 00:07:44;;;;;;;;;;;;;;;17.94;89.24;99443.41;326583;30;2698;-76
2023/05/27 00:07:55;;;;;;;;;;;;;;;17.93;89.17;99445.22;316314;31;1326;-76
2023/05/27 00:08:05;;;;;;;;;;;;;;;17.95;89.18;99450.41;317534;30;3344;-75
2023/05/27 00:08:15;;;;;;;;;;;;;;;17.95;89.15;99456.53;317908;30;3271;-75
2023/05/27 00:08:26;;;;;;;;;;;;;;;17.94;89.05;99449.56;319936;30;872;-75
2023/05/27 00:08:36;;;;;;;;;;;;;;;17.96;89.20;99460.03;317054;31;3290;-76
2023/05/27 00:08:46;;;;;;;;;;;;;;;17.93;89.25;99453.16;317483;30;2322;-76
2023/05/27 00:08:56;;;;;;;;;;;;;;;17.92;89.14;99453.28;322200;30;920;-76
2023/05/27 00:09:07;;;;;;;;;;;;;;;17.92;89.15;99447.97;314265;31;1995;-76
2023/05/27 00:09:17;;;;;;;;;;;;;;;17.92;89.29;99453.28;314692;31;2544;-76
2023/05/27 00:09:27;;;;;;;;;;;;;;;17.92;89.28;99447.97;315297;31;764;-76
2023/05/27 00:09:37;;;;;;;;;;;;;;;17.92;89.35;99451.47;313674;31;3450;-76
2023/05/27 00:09:48;;;;;;;;;;;;;;;17.93;89.30;99460.25;313028;31;4217;-75
2023/05/27 00:09:58;;;;;;;;;;;;;;;17.93;89.35;99454.97;314562;31;1323;-75
2023/05/27 00:10:08;;;;;;;;;;;;;;;17.94;89.25;99451.34;312957;31;4008;-75
2023/05/27 00:10:18;;;;;;;;;;;;;;;17.95;89.49;99448.59;311080;31;4764;-75
2023/05/27 00:10:29;;;;;;;;;;;;;;;17.95;89.19;99455.69;311708;31;4646;-75
2023/05/27 00:10:39;;;;;;;;;;;;;;;17.95;89.33;99453.88;314228;31;756;-75
2023/05/27 00:10:49;;;;;;;;;;;;;;;17.95;89.20;99453.88;312209;31;4279;-75
2023/05/27 00:10:59;;;;;;;;;;;;;;;17.97;89.33;99451.13;307436;31;3555;-75
2023/05/27 00:11:10;;;;;;;;;;;;;;;17.97;89.23;99452.94;307157;32;2901;-75
2023/05/27 00:11:21;;;;;;;;;;;;;;;17.96;89.21;99454.75;305796;32;2971;-75
2023/05/27 00:11:31;;;;;;;;;;;;;;;17.96;89.24;99454.75;305092;32;3605;-77
2023/05/27 00:11:41;;;;;;;;;;;;;;;17.95;89.18;99453.03;305501;32;3307;-76
2023/05/27 00:11:51;;;;;;;;;;;;;;;17.96;89.28;99446.78;303709;32;5179;-76
2023/05/27 00:12:02;;;;;;;;;;;;;;;17.96;89.08;99449.44;301508;32;7244;-75
2023/05/27 00:12:12;;;;;;;;;;;;;;;17.95;89.35;99448.59;304422;32;828;-75
2023/05/27 00:12:22;;;;;;;;;;;;;;;17.96;89.35;99438.84;305851;32;5389;-75
2023/05/27 00:12:32;;;;;;;;;;;;;;;17.94;89.23;99446.06;304133;32;6979;-75
2023/05/27 00:12:43;;;;;;;;;;;;;;;17.95;89.21;99448.59;303886;32;1142;-76
2023/05/27 00:12:53;;;;;;;;;;;;;;;17.96;89.43;99449.44;302532;32;6282;-76
2023/05/27 00:13:03;;;;;;;;;;;;;;;17.96;89.29;99449.44;300602;32;5643;-76
2023/05/27 00:13:13;;;;;;;;;;;;;;;17.96;89.31;99449.44;299160;33;1230;-76
2023/05/27 00:13:24;;;;;;;;;;;;;;;17.96;89.36;99449.44;298551;33;4421;-76
2023/05/27 00:13:34;;;;;;;;;;;;;;;17.95;89.39;99447.75;296863;33;4544;-76
2023/05/27 00:13:45;;;;;;;;;;;;;;;17.95;89.31;99447.75;294663;33;5262;-76
2023/05/27 00:13:55;;;;;;;;;;;;;;;17.95;89.48;99447.75;293231;33;1420;-75
2023/05/27 00:14:05;;;;;;;;;;;;;;;17.95;89.54;99453.03;289351;33;6786;-76
2023/05/27 00:14:17;;;;;;;;;;;;;;;17.94;89.42;99452.19;288008;34;10054;-76
2023/05/27 00:14:27;;;;;;;;;;;;;;;17.94;89.31;99452.19;288457;34;817;-76
2023/05/27 00:14:37;;;;;;;;;;;;;;;17.94;89.32;99446.06;284338;34;8227;-76
2023/05/27 00:14:48;;;;;;;;;;;;;;;17.94;89.19;99446.06;285052;34;10976;-76
2023/05/27 00:14:58;;;;;;;;;;;;;;;17.94;89.24;99452.19;286613;34;821;-76
2023/05/27 00:17:05;;;;;;;;;;;;;;;17.95;89.20;99453.88;2502206;27;20211;-75
2023/05/27 00:17:15;;;;;;;;;;;;;;;17.94;89.26;99451.34;356235;27;799;-75
2023/05/27 00:17:26;;;;;;;;;;;;;;;17.92;89.34;99455.91;356325;27;819;-74
2023/05/27 00:17:36;;;;;;;;;;;;;;;17.90;89.47;99449.88;353090;28;1285;-74
2023/05/27 00:17:47;;;;;;;;;;;;;;;17.89;89.55;99450.84;351912;28;847;-74
2023/05/27 00:18:01;;;;;;;;;;;;;;;17.90;89.53;99455.19;349557;28;1405;-74
2023/05/27 00:18:12;;;;;;;;;;;;;;;17.90;89.51;99450.72;349022;28;1272;-74
2023/05/27 00:18:22;;;;;;;;;;;;;;;17.90;89.51;99458.69;349136;28;963;-74
2023/05/27 00:18:32;;;;;;;;;;;;;;;17.91;89.64;99449.78;349052;28;737;-75
2023/05/27 00:18:43;;;;;;;;;;;;;;;17.91;89.62;99446.28;348771;28;1473;-75
2023/05/27 00:18:53;;;;;;;;;;;;;;;17.90;89.52;99450.72;349164;28;710;-75
2023/05/27 00:19:03;;;;;;;;;;;;;;;17.91;89.49;99448.94;349058;28;867;-75
2023/05/27 00:19:13;;;;;;;;;;;;;;;17.91;89.47;99451.59;346223;28;1709;-75
2023/05/27 00:19:24;;;;;;;;;;;;;;;17.89;89.67;99450.84;345038;28;1314;-75
2023/05/27 00:19:34;;;;;;;;;;;;;;;17.89;89.44;99449.03;345031;28;722;-75
2023/05/27 00:19:47;;;;;;;;;;;;;;;17.90;89.50;99448.09;347553;28;1337;-75
2023/05/27 00:20:02;;;;;;;;;;;;;;;17.91;89.50;99451.59;347742;28;887;-75
2023/05/27 00:20:12;;;;;;;;;;;;;;;17.89;89.64;99450.84;346906;28;3401;-75
2023/05/27 00:20:23;;;;;;;;;;;;;;;17.89;89.42;99449.03;345861;28;2956;-74
2023/05/27 00:20:33;;;;;;;;;;;;;;;17.89;89.49;99453.50;348091;28;3448;-74
2023/05/27 00:20:43;;;;;;;;;;;;;;;17.89;89.56;99453.50;350359;28;1314;-74
2023/05/27 00:20:54;;;;;;;;;;;;;;;17.89;89.69;99448.19;347318;28;3417;-74
2023/05/27 00:21:04;;;;;;;;;;;;;;;17.89;89.48;99451.69;345817;28;1276;-74
2023/05/27 00:21:15;;;;;;;;;;;;;;;17.88;89.57;99451.81;345523;28;1257;-74
2023/05/27 00:21:25;;;;;;;;;;;;;;;17.89;89.42;99448.19;344982;28;1181;-74
2023/05/27 00:21:36;;;;;;;;;;;;;;;17.88;89.54;99447.34;346346;28;1200;-74
2023/05/27 00:21:46;;;;;;;;;;;;;;;17.89;89.50;99454.34;346352;28;804;-74
2023/05/27 00:21:56;;;;;;;;;;;;;;;17.89;89.41;99442.91;346296;28;822;-75
2023/05/27 00:22:07;;;;;;;;;;;;;;;17.89;89.55;99442.91;346304;28;1393;-75
2023/05/27 00:22:17;;;;;;;;;;;;;;;17.89;89.52;99446.41;346299;28;1300;-75
2023/05/27 00:22:28;;;;;;;;;;;;;;;17.89;89.32;99449.03;346887;28;1431;-75
2023/05/27 00:22:38;;;;;;;;;;;;;;;17.90;89.35;99445.44;345051;28;825;-75
2023/05/27 00:22:50;;;;;;;;;;;;;;;17.90;89.43;99447.25;346316;28;895;-75
2023/05/27 00:23:00;;;;;;;;;;;;;;;17.91;89.46;99446.28;344724;28;1352;-75
2023/05/27 00:23:10;;;;;;;;;;;;;;;17.92;89.27;99442.69;344534;28;896;-75
2023/05/27 00:23:20;;;;;;;;;;;;;;;17.92;89.39;99447.97;345049;28;869;-75
2023/05/27 00:23:31;;;;;;;;;;;;;;;17.93;89.26;99452.31;348954;28;1159;-75
2023/05/27 00:23:44;;;;;;;;;;;;;;;17.92;89.36;99442.69;349967;28;1461;-75
2023/05/27 00:23:57;;;;;;;;;;;;;;;17.92;89.28;99442.69;344959;28;887;-75
2023/05/27 00:24:08;;;;;;;;;;;;;;;17.93;89.39;99441.72;343561;28;845;-75
2023/05/27 00:24:18;;;;;;;;;;;;;;;17.93;89.36;99439.06;343610;28;887;-75
2023/05/27 00:24:29;;;;;;;;;;;;;;;17.93;89.36;99444.38;342195;28;1225;-75
2023/05/27 00:24:41;;;;;;;;;;;;;;;17.93;89.26;99441.72;342280;28;1351;-75
2023/05/27 00:24:51;;;;;;;;;;;;;;;17.93;89.32;99442.56;340972;29;1351;-75
2023/05/27 00:25:01;;;;;;;;;;;;;;;17.93;89.24;99444.38;342581;28;1211;-75
2023/05/27 00:25:11;;;;;;;;;;;;;;;17.94;89.31;99448.72;340705;28;1068;-75
2023/05/27 00:25:22;;;;;;;;;;;;;;;17.93;89.46;99444.38;338387;29;786;-75
2023/05/27 00:25:32;;;;;;;;;;;;;;;17.92;89.36;99438.22;337607;28;1472;-74
2023/05/27 00:25:42;;;;;;;;;;;;;;;17.92;89.34;99440.03;342162;28;1504;-74
2023/05/27 00:25:53;;;;;;;;;;;;;;;17.94;89.29;99443.41;340083;29;1978;-74
2023/05/27 00:26:03;;;;;;;;;;;;;;;17.94;89.29;99441.59;338399;29;1509;-74
2023/05/27 00:26:13;;;;;;;;;;;;;;;17.93;89.26;99439.06;340147;29;849;-75
2023/05/27 00:26:24;;;;;;;;;;;;;;;17.93;89.40;99445.22;339528;29;1245;-75
2023/05/27 00:26:34;;;;;;;;;;;;;;;17.93;89.39;99439.06;338322;29;925;-75
2023/05/27 00:26:44;;;;;;;;;;;;;;;17.90;89.33;99437.50;336198;29;1343;-75
2023/05/27 00:26:54;;;;;;;;;;;;;;;17.91;89.37;99443.63;335548;29;1326;-75
2023/05/27 00:27:05;;;;;;;;;;;;;;;17.90;89.33;99434.00;337103;29;846;-75
2023/05/27 00:27:15;;;;;;;;;;;;;;;17.91;89.37;99441.00;335359;29;1642;-75
2023/05/27 00:27:26;;;;;;;;;;;;;;;17.90;89.58;99441.94;335695;29;1565;-75
2023/05/27 00:27:36;;;;;;;;;;;;;;;17.90;89.41;99439.28;335686;29;894;-75
2023/05/27 00:27:47;;;;;;;;;;;;;;;17.89;89.46;99437.59;336728;29;1489;-75
2023/05/27 00:27:58;;;;;;;;;;;;;;;17.89;89.42;99437.59;336737;29;2154;-75
2023/05/27 00:28:08;;;;;;;;;;;;;;;17.89;89.43;99445.56;335792;29;827;-75
2023/05/27 00:28:18;;;;;;;;;;;;;;;17.89;89.46;99438.47;339289;29;1503;-75
2023/05/27 00:28:31;;;;;;;;;;;;;;;17.90;89.57;99441.94;336292;29;1468;-75
2023/05/27 00:28:41;;;;;;;;;;;;;;;17.91;89.56;99441.00;333977;29;1374;-75
2023/05/27 00:28:52;;;;;;;;;;;;;;;17.90;89.53;99444.59;332838;29;1335;-75
2023/05/27 00:29:02;;;;;;;;;;;;;;;17.91;89.45;99441.00;333091;29;1621;-75
2023/05/27 00:29:12;;;;;;;;;;;;;;;17.91;89.55;99441.00;331532;29;2035;-75
2023/05/27 00:29:24;;;;;;;;;;;;;;;17.91;89.49;99441.00;329594;30;847;-75
2023/05/27 00:29:35;;;;;;;;;;;;;;;17.91;89.42;99443.63;324593;30;2951;-75
2023/05/27 00:29:45;;;;;;;;;;;;;;;17.92;89.44;99440.03;318697;30;5014;-75
2023/05/27 00:29:55;;;;;;;;;;;;;;;17.92;89.47;99442.69;315370;30;3047;-75
2023/05/27 00:30:06;;;;;;;;;;;;;;;17.92;89.25;99442.69;320131;30;3419;-75
2023/05/27 00:30:16;;;;;;;;;;;;;;;17.92;89.49;99440.03;323169;30;2292;-75
2023/05/27 00:30:27;;;;;;;;;;;;;;;17.93;89.43;99439.06;319086;30;1824;-75
2023/05/27 00:30:37;;;;;;;;;;;;;;;17.93;89.34;99439.06;319163;30;1366;-75
2023/05/27 00:30:47;;;;;;;;;;;;;;;17.93;89.74;99439.06;323627;30;1092;-75
2023/05/27 00:30:57;;;;;;;;;;;;;;;17.93;89.43;99439.06;323719;30;1820;-75
2023/05/27 00:31:08;;;;;;;;;;;;;;;17.94;89.38;99441.59;322806;30;1241;-76
2023/05/27 00:31:18;;;;;;;;;;;;;;;17.93;89.39;99444.38;322434;30;2326;-76
2023/05/27 00:31:28;;;;;;;;;;;;;;;17.90;89.61;99439.28;319926;30;2710;-75
2023/05/27 00:31:38;;;;;;;;;;;;;;;17.89;89.66;99437.59;319562;30;1144;-75
2023/05/27 00:31:49;;;;;;;;;;;;;;;17.88;89.77;99438.56;316757;31;2890;-75
2023/05/27 00:32:04;;;;;;;;;;;;;;;17.87;89.68;99440.38;316664;30;3619;-75
2023/05/27 00:32:15;;;;;;;;;;;;;;;17.88;89.86;99438.56;315761;31;3114;-75
2023/05/27 00:32:25;;;;;;;;;;;;;;;17.86;89.86;99446.63;313998;31;2979;-75
2023/05/27 00:32:35;;;;;;;;;;;;;;;17.87;89.73;99440.38;313101;31;867;-75
2023/05/27 00:32:46;;;;;;;;;;;;;;;17.87;89.90;99442.16;310769;31;2521;-75
2023/05/27 00:32:57;;;;;;;;;;;;;;;17.87;89.88;99442.16;309348;31;2077;-75
2023/05/27 00:33:07;;;;;;;;;;;;;;;17.87;89.85;99440.38;308753;32;851;-75
2023/05/27 00:33:17;;;;;;;;;;;;;;;17.87;89.87;99444.81;308045;32;2907;-75
2023/05/27 00:33:27;;;;;;;;;;;;;;;17.87;89.82;99439.53;307158;31;3582;-75
2023/05/27 00:33:39;;;;;;;;;;;;;;;17.88;89.67;99441.22;307723;32;884;-75
2023/05/27 00:33:49;;;;;;;;;;;;;;;17.88;89.75;99435.91;302692;32;3999;-75
2023/05/27 00:33:59;;;;;;;;;;;;;;;17.88;89.76;99435.91;301734;32;4287;-75
2023/05/27 00:34:09;;;;;;;;;;;;;;;17.89;89.72;99442.91;302502;32;4877;-75
2023/05/27 00:34:20;;;;;;;;;;;;;;;17.88;89.68;99438.56;303427;32;896;-75
2023/05/27 00:34:30;;;;;;;;;;;;;;;17.89;89.49;99437.59;300940;32;4416;-75
2023/05/27 00:34:40;;;;;;;;;;;;;;;17.90;89.66;99440.16;299719;32;4122;-75
2023/05/27 00:34:51;;;;;;;;;;;;;;;17.89;89.88;99438.47;299234;33;863;-75
2023/05/27 00:35:01;;;;;;;;;;;;;;;17.90;89.44;99439.28;299573;32;3535;-75
2023/05/27 00:35:11;;;;;;;;;;;;;;;17.88;89.55;99435.91;299629;32;2981;-75
2023/05/27 00:35:21;;;;;;;;;;;;;;;17.90;89.49;99437.50;301387;32;714;-75
2023/05/27 00:35:32;;;;;;;;;;;;;;;17.90;89.74;99436.66;299181;32;4136;-75
2023/05/27 00:35:42;;;;;;;;;;;;;;;17.91;89.39;99441.00;297210;33;4781;-75
2023/05/27 00:35:52;;;;;;;;;;;;;;;17.89;89.74;99441.09;297181;33;1257;-75
2023/05/27 00:36:03;;;;;;;;;;;;;;;17.89;89.75;99437.59;295767;33;6043;-75
2023/05/27 00:36:14;;;;;;;;;;;;;;;17.90;89.69;99441.94;296927;33;6315;-75
2023/05/27 00:36:24;;;;;;;;;;;;;;;17.89;89.79;99437.59;298837;33;806;-75
2023/05/27 00:36:35;;;;;;;;;;;;;;;17.89;89.91;99434.97;295137;33;6978;-76
2023/05/27 00:36:45;;;;;;;;;;;;;;;17.90;89.71;99434.00;289856;33;6170;-75
2023/05/27 00:36:55;;;;;;;;;;;;;;;17.90;89.69;99436.66;288474;33;5158;-75
2023/05/27 00:37:06;;;;;;;;;;;;;;;17.89;89.73;99437.59;292295;33;823;-75
2023/05/27 00:37:16;;;;;;;;;;;;;;;17.90;89.81;99436.66;289574;34;4900;-75
2023/05/27 00:37:26;;;;;;;;;;;;;;;17.90;89.78;99436.66;286976;34;4593;-75
2023/05/27 00:37:37;;;;;;;;;;;;;;;17.89;89.73;99433.16;287498;34;876;-75
2023/05/27 00:37:47;;;;;;;;;;;;;;;17.90;89.75;99431.34;284468;34;6936;-75
2023/05/27 00:37:57;;;;;;;;;;;;;;;17.90;89.62;99431.34;282974;34;7417;-75
2023/05/27 00:38:08;;;;;;;;;;;;;;;17.90;89.82;99431.34;285534;34;1317;-75
2023/05/27 00:38:18;;;;;;;;;;;;;;;17.91;89.79;99435.69;284010;34;8398;-75
2023/05/27 00:38:28;;;;;;;;;;;;;;;17.91;89.88;99433.88;281902;34;8761;-75
2023/05/27 00:38:38;;;;;;;;;;;;;;;17.92;89.54;99426.78;280876;35;3741;-75
2023/05/27 00:40:14;;;;;;;;;;;;;;;17.92;89.57;99426.78;2500174;27;19973;-75
2023/05/27 00:40:24;;;;;;;;;;;;;;;17.91;89.78;99423.31;356119;27;980;-75
2023/05/27 00:40:35;;;;;;;;;;;;;;;17.93;89.58;99420.53;356074;27;1147;-75
2023/05/27 00:40:45;;;;;;;;;;;;;;;17.93;89.55;99420.53;352435;28;1146;-75
2023/05/27 00:40:56;;;;;;;;;;;;;;;17.91;89.66;99420.66;351144;28;1081;-75
2023/05/27 00:41:06;;;;;;;;;;;;;;;17.91;89.63;99425.94;351895;28;816;-75
2023/05/27 00:41:16;;;;;;;;;;;;;;;17.91;89.57;99419.81;350484;28;1334;-75
2023/05/27 00:41:26;;;;;;;;;;;;;;;17.91;89.63;99420.66;350385;28;1352;-75
2023/05/27 00:41:37;;;;;;;;;;;;;;;17.92;89.55;99421.50;349694;28;1330;-75
2023/05/27 00:41:48;;;;;;;;;;;;;;;17.92;89.66;99421.50;347396;28;1260;-75
2023/05/27 00:41:58;;;;;;;;;;;;;;;17.90;89.70;99424.25;349083;28;804;-75
2023/05/27 00:42:08;;;;;;;;;;;;;;;17.92;89.53;99410.91;348562;28;899;-75
2023/05/27 00:42:18;;;;;;;;;;;;;;;17.92;89.54;99419.69;349054;28;839;-75
2023/05/27 00:42:29;;;;;;;;;;;;;;;17.92;89.47;99419.69;350388;28;1316;-75
2023/05/27 00:42:39;;;;;;;;;;;;;;;17.94;89.61;99422.22;350482;28;788;-75
2023/05/27 00:42:49;;;;;;;;;;;;;;;17.93;89.58;99417.88;350499;28;879;-75
2023/05/27 00:42:59;;;;;;;;;;;;;;;17.93;89.71;99423.19;351868;28;792;-75
2023/05/27 00:43:10;;;;;;;;;;;;;;;17.93;89.66;99412.59;348944;28;1286;-75
2023/05/27 00:43:20;;;;;;;;;;;;;;;17.92;89.64;99413.56;350549;28;963;-75
2023/05/27 00:43:30;;;;;;;;;;;;;;;17.92;89.66;99411.75;351820;28;1231;-75
2023/05/27 00:43:41;;;;;;;;;;;;;;;17.93;89.71;99415.25;350374;28;1323;-75
2023/05/27 00:43:51;;;;;;;;;;;;;;;17.92;89.56;99408.25;350996;28;788;-75
2023/05/27 00:44:02;;;;;;;;;;;;;;;17.86;89.62;99411.34;350288;28;1242;-75
2023/05/27 00:44:12;;;;;;;;;;;;;;;17.85;89.81;99414.97;349812;28;1386;-75
2023/05/27 00:44:22;;;;;;;;;;;;;;;17.84;89.81;99413.28;350501;28;1256;-75
2023/05/27 00:44:33;;;;;;;;;;;;;;;17.86;89.83;99411.34;350398;28;902;-75
2023/05/27 00:44:43;;;;;;;;;;;;;;;17.86;89.80;99416.66;349137;28;812;-75
2023/05/27 00:44:56;;;;;;;;;;;;;;;17.87;89.60;99410.41;350408;28;1384;-75
2023/05/27 00:45:07;;;;;;;;;;;;;;;17.88;89.56;99414.75;348237;28;1839;-75
2023/05/27 00:45:17;;;;;;;;;;;;;;;17.88;89.58;99409.44;347730;28;833;-75
2023/05/27 00:45:27;;;;;;;;;;;;;;;17.87;89.67;99413.88;347685;28;1226;-75
2023/05/27 00:45:37;;;;;;;;;;;;;;;17.88;89.54;99404.16;348939;28;1320;-75
2023/05/27 00:45:48;;;;;;;;;;;;;;;17.88;89.66;99404.16;346035;28;1278;-75
2023/05/27 00:45:58;;;;;;;;;;;;;;;17.89;89.64;99405.84;345226;28;1732;-75
2023/05/27 00:46:08;;;;;;;;;;;;;;;17.89;89.69;99409.31;344268;28;865;-75
2023/05/27 00:46:18;;;;;;;;;;;;;;;17.90;89.59;99407.53;344887;28;987;-75
2023/05/27 00:46:28;;;;;;;;;;;;;;;17.90;89.51;99412.81;343671;28;777;-76
2023/05/27 00:46:39;;;;;;;;;;;;;;;17.89;89.46;99405.84;343514;28;1354;-75
2023/05/27 00:46:49;;;;;;;;;;;;;;;17.91;89.45;99417.16;345338;28;1264;-75
2023/05/27 00:47:00;;;;;;;;;;;;;;;17.90;89.66;99408.38;346717;28;1078;-75
2023/05/27 00:47:10;;;;;;;;;;;;;;;17.91;89.53;99411.88;346306;28;902;-75
2023/05/27 00:47:20;;;;;;;;;;;;;;;17.90;89.55;99408.38;344957;28;865;-75
2023/05/27 00:47:31;;;;;;;;;;;;;;;17.90;89.48;99407.53;346359;28;1410;-75
2023/05/27 00:47:41;;;;;;;;;;;;;;;17.89;89.75;99405.84;343863;28;1454;-75
2023/05/27 00:47:51;;;;;;;;;;;;;;;17.89;89.65;99411.13;345253;28;886;-75
2023/05/27 00:48:02;;;;;;;;;;;;;;;17.89;89.73;99408.47;346530;28;3595;-75
2023/05/27 00:48:12;;;;;;;;;;;;;;;17.89;89.66;99416.44;343890;28;4778;-75
2023/05/27 00:48:22;;;;;;;;;;;;;;;17.88;89.71;99404.16;345476;28;3147;-76
2023/05/27 00:48:33;;;;;;;;;;;;;;;17.89;89.70;99408.47;341946;28;1710;-76
2023/05/27 00:48:43;;;;;;;;;;;;;;;17.88;89.73;99412.09;341070;29;873;-76
2023/05/27 00:48:53;;;;;;;;;;;;;;;17.88;89.69;99407.63;343376;28;1699;-76
2023/05/27 00:49:04;;;;;;;;;;;;;;;17.85;89.96;99414.97;341519;28;1918;-76
2023/05/27 00:49:14;;;;;;;;;;;;;;;17.86;89.62;99414.00;338453;29;730;-76
2023/05/27 00:49:26;;;;;;;;;;;;;;;17.85;89.83;99412.31;341254;28;991;-75
2023/05/27 00:49:36;;;;;;;;;;;;;;;17.85;89.69;99415.81;342797;28;1356;-75
2023/05/27 00:49:47;;;;;;;;;;;;;;;17.85;89.93;99410.50;342336;28;1343;-74
2023/05/27 00:49:57;;;;;;;;;;;;;;;17.84;89.69;99408.81;340860;29;1171;-74
2023/05/27 00:50:08;;;;;;;;;;;;;;;17.84;89.80;99408.81;336378;29;1208;-75
2023/05/27 00:50:18;;;;;;;;;;;;;;;17.85;89.91;99402.56;332827;29;1874;-75
2023/05/27 00:50:29;;;;;;;;;;;;;;;17.85;89.96;99414.97;335627;29;828;-75
2023/05/27 00:50:39;;;;;;;;;;;;;;;17.86;89.81;99414.00;338126;29;1637;-75
2023/05/27 00:50:50;;;;;;;;;;;;;;;17.85;89.72;99409.66;339014;29;2100;-75
2023/05/27 00:51:00;;;;;;;;;;;;;;;17.84;89.84;99408.81;337026;29;1272;-75
2023/05/27 00:51:10;;;;;;;;;;;;;;;17.86;90.14;99417.50;336638;29;2084;-75
2023/05/27 00:51:21;;;;;;;;;;;;;;;17.85;89.82;99414.97;336925;29;1610;-75
2023/05/27 00:51:31;;;;;;;;;;;;;;;17.86;89.79;99417.50;337009;29;1448;-75
2023/05/27 00:51:41;;;;;;;;;;;;;;;17.85;89.75;99409.66;335593;29;878;-75
2023/05/27 00:51:51;;;;;;;;;;;;;;;17.86;89.93;99414.84;335444;29;1280;-76
2023/05/27 00:52:01;;;;;;;;;;;;;;;17.86;89.93;99412.19;337046;29;1211;-75
2023/05/27 00:52:13;;;;;;;;;;;;;;;17.88;89.90;99412.09;334568;29;1448;-75
2023/05/27 00:52:23;;;;;;;;;;;;;;;17.87;89.82;99402.47;330678;29;2083;-75
2023/05/27 00:52:33;;;;;;;;;;;;;;;17.87;89.78;99410.41;328751;29;2242;-76
2023/05/27 00:52:44;;;;;;;;;;;;;;;17.87;89.77;99410.41;329433;30;966;-75
2023/05/27 00:52:55;;;;;;;;;;;;;;;17.87;89.74;99413.03;326833;30;2284;-75
2023/05/27 00:53:05;;;;;;;;;;;;;;;17.87;89.77;99413.03;324616;30;2855;-76
2023/05/27 00:53:15;;;;;;;;;;;;;;;17.87;89.65;99413.03;324496;30;1210;-75
2023/05/27 00:53:25;;;;;;;;;;;;;;;17.87;89.77;99413.88;327475;30;2671;-75
2023/05/27 00:53:40;;;;;;;;;;;;;;;17.86;89.81;99412.19;328109;30;1811;-75
2023/05/27 00:53:50;;;;;;;;;;;;;;;17.87;89.80;99407.75;325504;30;977;-75
2023/05/27 00:54:01;;;;;;;;;;;;;;;17.87;89.64;99419.19;323218;30;1720;-75
2023/05/27 00:54:11;;;;;;;;;;;;;;;17.87;89.57;99410.41;320890;30;1973;-75
2023/05/27 00:54:22;;;;;;;;;;;;;;;17.87;89.55;99408.59;321033;30;2462;-76
2023/05/27 00:54:32;;;;;;;;;;;;;;;17.86;89.58;99411.34;322306;30;889;-76
2023/05/27 00:54:42;;;;;;;;;;;;;;;17.87;89.40;99413.03;317584;31;854;-76
2023/05/27 00:54:53;;;;;;;;;;;;;;;17.87;89.42;99416.53;317857;30;3046;-75
2023/05/27 00:55:04;;;;;;;;;;;;;;;17.87;89.31;99416.53;316066;31;3182;-75
2023/05/27 00:55:14;;;;;;;;;;;;;;;17.88;89.18;99414.75;315332;31;1191;-75
2023/05/27 00:55:25;;;;;;;;;;;;;;;17.88;89.34;99420.03;313735;31;3797;-75
2023/05/27 00:55:35;;;;;;;;;;;;;;;17.88;89.24;99404.16;312939;31;3398;-75
2023/05/27 00:55:45;;;;;;;;;;;;;;;17.87;89.10;99405.09;313024;31;863;-75
2023/05/27 00:55:55;;;;;;;;;;;;;;;17.88;89.31;99414.75;311477;31;2497;-75
2023/05/27 00:56:06;;;;;;;;;;;;;;;17.88;89.24;99412.09;310604;31;2084;-75
2023/05/27 00:56:17;;;;;;;;;;;;;;;17.88;89.35;99414.75;313213;31;823;-75
2023/05/27 00:56:27;;;;;;;;;;;;;;;17.88;89.29;99409.44;310743;31;1436;-75
2023/05/27 00:56:37;;;;;;;;;;;;;;;17.88;89.32;99422.69;310413;31;3404;-75
2023/05/27 00:56:48;;;;;;;;;;;;;;;17.89;89.35;99408.47;308790;31;3955;-75
2023/05/27 00:56:58;;;;;;;;;;;;;;;17.89;89.31;99413.78;310919;31;812;-75
2023/05/27 00:57:08;;;;;;;;;;;;;;;17.89;89.14;99411.97;305274;32;4534;-75
2023/05/27 00:57:19;;;;;;;;;;;;;;;17.89;89.21;99421.72;301812;32;3978;-75
2023/05/27 00:57:29;;;;;;;;;;;;;;;17.89;89.20;99416.44;302576;32;4656;-76
2023/05/27 00:57:39;;;;;;;;;;;;;;;17.89;89.20;99416.44;303839;32;7826;-75
2023/05/27 00:57:49;;;;;;;;;;;;;;;17.89;89.17;99416.44;302810;32;5365;-76
2023/05/27 00:58:00;;;;;;;;;;;;;;;17.90;89.29;99410.16;301330;32;905;-76
2023/05/27 00:58:10;;;;;;;;;;;;;;;17.90;89.15;99415.47;301103;32;3385;-75
2023/05/27 00:58:21;;;;;;;;;;;;;;;17.89;89.20;99411.13;300323;32;3067;-75
2023/05/27 00:58:31;;;;;;;;;;;;;;;17.90;89.24;99423.41;299237;33;1362;-75
2023/05/27 00:58:42;;;;;;;;;;;;;;;17.89;89.22;99417.28;298218;32;3927;-75
2023/05/27 00:58:52;;;;;;;;;;;;;;;17.90;89.17;99418.13;296877;32;4827;-75
2023/05/27 00:59:02;;;;;;;;;;;;;;;17.91;88.88;99414.50;298084;33;1406;-75
2023/05/27 00:59:12;;;;;;;;;;;;;;;17.90;89.09;99418.97;292278;33;1498;-76
2023/05/27 00:59:23;;;;;;;;;;;;;;;17.90;88.95;99416.31;290079;33;6623;-75
2023/05/27 00:59:33;;;;;;;;;;;;;;;17.90;88.84;99421.59;290558;33;5698;-75